sensor_id;sensor_type;location;lat;lon;timestamp;P1;durP1;ratioP1;P2;durP2;ratioP2
64157;SDS011;50449;51.528;5.076;2023-06-26T00:01:40;176.85;;;169.35;;
64157;SDS011;50449;51.528;5.076;2023-06-26T00:04:07;172.02;;;164.60;;
64157;SDS011;50449;51.528;5.076;2023-06-26T00:06:33;177.73;;;170.02;;
64157;SDS011;50449;51.528;5.076;2023-06-26T00:08:58;172.00;;;164.70;;
64157;SDS011;50449;51.528;5.076;2023-06-26T00:11:23;173.93;;;166.55;;
64157;SDS011;50449;51.528;5.076;2023-06-26T00:13:49;175.82;;;168.45;;
64157;SDS011;50449;51.528;5.076;2023-06-26T00:16:15;177.10;;;169.40;;
64157;SDS011;50449;51.528;5.076;2023-06-26T00:18:41;172.45;;;164.48;;
64157;SDS011;50449;51.528;5.076;2023-06-26T00:21:06;169.05;;;161.88;;
64157;SDS011;50449;51.528;5.076;2023-06-26T00:23:32;169.82;;;162.60;;
64157;SDS011;50449;51.528;5.076;2023-06-26T00:26:02;171.15;;;163.80;;
64157;SDS011;50449;51.528;5.076;2023-06-26T00:28:28;172.10;;;164.60;;
64157;SDS011;50449;51.528;5.076;2023-06-26T00:30:53;172.85;;;165.52;;
64157;SDS011;50449;51.528;5.076;2023-06-26T00:33:19;179.80;;;172.13;;
64157;SDS011;50449;51.528;5.076;2023-06-26T00:35:44;173.02;;;165.65;;
64157;SDS011;50449;51.528;5.076;2023-06-26T00:38:09;169.00;;;161.75;;
64157;SDS011;50449;51.528;5.076;2023-06-26T00:40:35;170.60;;;163.20;;
64157;SDS011;50449;51.528;5.076;2023-06-26T00:43:00;171.38;;;164.20;;
64157;SDS011;50449;51.528;5.076;2023-06-26T00:45:25;171.50;;;164.05;;
64157;SDS011;50449;51.528;5.076;2023-06-26T00:47:51;167.98;;;160.93;;
64157;SDS011;50449;51.528;5.076;2023-06-26T00:50:17;163.80;;;156.82;;
64157;SDS011;50449;51.528;5.076;2023-06-26T00:52:42;166.20;;;159.05;;
64157;SDS011;50449;51.528;5.076;2023-06-26T00:55:08;162.38;;;155.40;;
64157;SDS011;50449;51.528;5.076;2023-06-26T00:57:34;163.48;;;156.38;;
64157;SDS011;50449;51.528;5.076;2023-06-26T01:00:00;164.88;;;157.77;;
64157;SDS011;50449;51.528;5.076;2023-06-26T01:02:26;170.60;;;163.27;;
64157;SDS011;50449;51.528;5.076;2023-06-26T01:04:58;165.85;;;158.60;;
64157;SDS011;50449;51.528;5.076;2023-06-26T01:07:28;170.75;;;163.35;;
64157;SDS011;50449;51.528;5.076;2023-06-26T01:09:54;162.52;;;155.63;;
64157;SDS011;50449;51.528;5.076;2023-06-26T01:12:19;168.60;;;161.27;;
64157;SDS011;50449;51.528;5.076;2023-06-26T01:14:45;163.18;;;156.18;;
64157;SDS011;50449;51.528;5.076;2023-06-26T01:17:10;166.55;;;159.45;;
64157;SDS011;50449;51.528;5.076;2023-06-26T01:19:40;166.98;;;159.95;;
64157;SDS011;50449;51.528;5.076;2023-06-26T01:28:26;160.63;;;153.65;;
64157;SDS011;50449;51.528;5.076;2023-06-26T01:30:53;161.10;;;154.13;;
64157;SDS011;50449;51.528;5.076;2023-06-26T01:33:20;164.40;;;157.13;;
64157;SDS011;50449;51.528;5.076;2023-06-26T01:35:45;162.55;;;155.45;;
64157;SDS011;50449;51.528;5.076;2023-06-26T01:38:18;158.85;;;152.10;;
64157;SDS011;50449;51.528;5.076;2023-06-26T01:40:45;162.98;;;155.75;;
64157;SDS011;50449;51.528;5.076;2023-06-26T01:43:57;161.05;;;154.20;;
64157;SDS011;50449;51.528;5.076;2023-06-26T01:46:25;155.07;;;148.52;;
64157;SDS011;50449;51.528;5.076;2023-06-26T01:49:03;158.50;;;151.75;;
64157;SDS011;50449;51.528;5.076;2023-06-26T01:51:39;160.93;;;152.88;;
64157;SDS011;50449;51.528;5.076;2023-06-26T01:54:13;158.10;;;150.88;;
64157;SDS011;50449;51.528;5.076;2023-06-26T01:56:43;155.13;;;148.35;;
64157;SDS011;50449;51.528;5.076;2023-06-26T01:59:10;154.18;;;147.38;;
64157;SDS011;50449;51.528;5.076;2023-06-26T02:01:39;157.68;;;150.68;;
64157;SDS011;50449;51.528;5.076;2023-06-26T02:04:04;157.07;;;150.35;;
64157;SDS011;50449;51.528;5.076;2023-06-26T02:06:30;157.27;;;150.48;;
64157;SDS011;50449;51.528;5.076;2023-06-26T02:08:55;161.18;;;154.35;;
64157;SDS011;50449;51.528;5.076;2023-06-26T02:11:21;154.32;;;147.57;;
64157;SDS011;50449;51.528;5.076;2023-06-26T02:13:47;155.27;;;148.60;;
64157;SDS011;50449;51.528;5.076;2023-06-26T02:16:13;155.85;;;148.95;;
64157;SDS011;50449;51.528;5.076;2023-06-26T02:18:38;156.57;;;149.48;;
64157;SDS011;50449;51.528;5.076;2023-06-26T02:21:04;153.02;;;146.13;;
64157;SDS011;50449;51.528;5.076;2023-06-26T02:23:29;155.63;;;148.93;;
64157;SDS011;50449;51.528;5.076;2023-06-26T02:25:55;155.85;;;149.32;;
64157;SDS011;50449;51.528;5.076;2023-06-26T02:28:20;153.23;;;146.43;;
64157;SDS011;50449;51.528;5.076;2023-06-26T02:30:45;156.15;;;149.50;;
64157;SDS011;50449;51.528;5.076;2023-06-26T02:33:11;149.68;;;143.07;;
64157;SDS011;50449;51.528;5.076;2023-06-26T02:35:36;152.10;;;145.40;;
64157;SDS011;50449;51.528;5.076;2023-06-26T02:38:02;149.63;;;143.23;;
64157;SDS011;50449;51.528;5.076;2023-06-26T02:40:27;149.73;;;142.93;;
64157;SDS011;50449;51.528;5.076;2023-06-26T02:42:52;147.80;;;141.25;;
64157;SDS011;50449;51.528;5.076;2023-06-26T02:45:18;146.52;;;140.18;;
64157;SDS011;50449;51.528;5.076;2023-06-26T02:47:43;148.38;;;141.95;;
64157;SDS011;50449;51.528;5.076;2023-06-26T02:50:09;148.07;;;141.38;;
64157;SDS011;50449;51.528;5.076;2023-06-26T02:52:34;148.75;;;142.25;;
64157;SDS011;50449;51.528;5.076;2023-06-26T02:55:00;151.57;;;144.77;;
64157;SDS011;50449;51.528;5.076;2023-06-26T02:57:25;150.13;;;143.60;;
64157;SDS011;50449;51.528;5.076;2023-06-26T02:59:51;144.68;;;138.15;;
64157;SDS011;50449;51.528;5.076;2023-06-26T03:02:16;149.40;;;143.00;;
64157;SDS011;50449;51.528;5.076;2023-06-26T03:04:42;143.40;;;136.93;;
64157;SDS011;50449;51.528;5.076;2023-06-26T03:07:08;144.88;;;137.80;;
64157;SDS011;50449;51.528;5.076;2023-06-26T03:09:34;144.93;;;138.57;;
64157;SDS011;50449;51.528;5.076;2023-06-26T03:11:59;141.25;;;135.27;;
64157;SDS011;50449;51.528;5.076;2023-06-26T03:14:25;148.48;;;141.95;;
64157;SDS011;50449;51.528;5.076;2023-06-26T03:16:51;145.32;;;138.35;;
64157;SDS011;50449;51.528;5.076;2023-06-26T03:19:18;147.90;;;141.52;;
64157;SDS011;50449;51.528;5.076;2023-06-26T03:21:43;145.48;;;138.98;;
64157;SDS011;50449;51.528;5.076;2023-06-26T03:24:09;148.23;;;140.93;;
64157;SDS011;50449;51.528;5.076;2023-06-26T03:26:34;147.30;;;140.80;;
64157;SDS011;50449;51.528;5.076;2023-06-26T03:28:59;142.55;;;136.18;;
64157;SDS011;50449;51.528;5.076;2023-06-26T03:31:25;140.07;;;133.45;;
64157;SDS011;50449;51.528;5.076;2023-06-26T03:33:50;141.75;;;135.45;;
64157;SDS011;50449;51.528;5.076;2023-06-26T03:36:16;143.88;;;137.40;;
64157;SDS011;50449;51.528;5.076;2023-06-26T03:38:41;137.48;;;131.48;;
64157;SDS011;50449;51.528;5.076;2023-06-26T03:41:06;141.95;;;135.70;;
64157;SDS011;50449;51.528;5.076;2023-06-26T03:43:32;143.13;;;136.35;;
64157;SDS011;50449;51.528;5.076;2023-06-26T03:45:57;140.25;;;133.75;;
64157;SDS011;50449;51.528;5.076;2023-06-26T03:48:22;149.63;;;143.10;;
64157;SDS011;50449;51.528;5.076;2023-06-26T03:50:48;140.18;;;133.90;;
64157;SDS011;50449;51.528;5.076;2023-06-26T03:53:14;143.38;;;137.02;;
64157;SDS011;50449;51.528;5.076;2023-06-26T03:55:39;138.57;;;132.25;;
64157;SDS011;50449;51.528;5.076;2023-06-26T03:58:04;142.68;;;136.07;;
64157;SDS011;50449;51.528;5.076;2023-06-26T04:00:30;137.43;;;131.13;;
64157;SDS011;50449;51.528;5.076;2023-06-26T04:02:55;143.82;;;137.23;;
64157;SDS011;50449;51.528;5.076;2023-06-26T04:05:22;144.13;;;137.52;;
64157;SDS011;50449;51.528;5.076;2023-06-26T04:07:51;137.93;;;131.57;;
64157;SDS011;50449;51.528;5.076;2023-06-26T04:10:17;137.82;;;130.88;;
64157;SDS011;50449;51.528;5.076;2023-06-26T04:12:42;138.95;;;132.55;;
64157;SDS011;50449;51.528;5.076;2023-06-26T04:15:08;135.93;;;129.35;;
64157;SDS011;50449;51.528;5.076;2023-06-26T04:17:34;137.52;;;131.07;;
64157;SDS011;50449;51.528;5.076;2023-06-26T04:19:59;142.05;;;135.80;;
64157;SDS011;50449;51.528;5.076;2023-06-26T04:22:24;135.00;;;129.10;;
64157;SDS011;50449;51.528;5.076;2023-06-26T04:24:50;138.43;;;132.18;;
64157;SDS011;50449;51.528;5.076;2023-06-26T04:27:16;137.05;;;130.63;;
64157;SDS011;50449;51.528;5.076;2023-06-26T04:29:42;135.07;;;128.98;;
64157;SDS011;50449;51.528;5.076;2023-06-26T04:32:07;138.00;;;131.57;;
64157;SDS011;50449;51.528;5.076;2023-06-26T04:34:33;133.43;;;127.32;;
64157;SDS011;50449;51.528;5.076;2023-06-26T04:36:59;136.48;;;129.85;;
64157;SDS011;50449;51.528;5.076;2023-06-26T04:39:24;136.20;;;129.95;;
64157;SDS011;50449;51.528;5.076;2023-06-26T04:41:49;136.00;;;129.07;;
64157;SDS011;50449;51.528;5.076;2023-06-26T04:44:15;132.45;;;126.55;;
64157;SDS011;50449;51.528;5.076;2023-06-26T04:46:40;137.10;;;130.43;;
64157;SDS011;50449;51.528;5.076;2023-06-26T04:49:07;136.38;;;130.07;;
64157;SDS011;50449;51.528;5.076;2023-06-26T04:51:33;134.23;;;127.93;;
64157;SDS011;50449;51.528;5.076;2023-06-26T04:53:58;137.50;;;131.13;;
64157;SDS011;50449;51.528;5.076;2023-06-26T04:56:24;133.88;;;127.65;;
64157;SDS011;50449;51.528;5.076;2023-06-26T04:58:49;133.15;;;127.28;;
64157;SDS011;50449;51.528;5.076;2023-06-26T05:01:14;129.73;;;123.90;;
64157;SDS011;50449;51.528;5.076;2023-06-26T05:03:40;132.45;;;126.47;;
64157;SDS011;50449;51.528;5.076;2023-06-26T05:06:06;130.80;;;124.78;;
64157;SDS011;50449;51.528;5.076;2023-06-26T05:08:31;133.82;;;127.93;;
64157;SDS011;50449;51.528;5.076;2023-06-26T05:10:56;130.57;;;124.45;;
64157;SDS011;50449;51.528;5.076;2023-06-26T05:15:51;130.20;;;124.20;;
64157;SDS011;50449;51.528;5.076;2023-06-26T05:18:17;130.20;;;124.20;;
64157;SDS011;50449;51.528;5.076;2023-06-26T05:20:43;129.68;;;123.53;;
64157;SDS011;50449;51.528;5.076;2023-06-26T05:23:08;133.63;;;127.22;;
64157;SDS011;50449;51.528;5.076;2023-06-26T05:25:39;126.47;;;120.70;;
64157;SDS011;50449;51.528;5.076;2023-06-26T05:28:05;127.88;;;121.65;;
64157;SDS011;50449;51.528;5.076;2023-06-26T05:30:33;127.28;;;121.55;;
64157;SDS011;50449;51.528;5.076;2023-06-26T05:33:00;127.78;;;122.00;;
64157;SDS011;50449;51.528;5.076;2023-06-26T05:35:28;127.05;;;121.70;;
64157;SDS011;50449;51.528;5.076;2023-06-26T05:37:57;129.20;;;123.30;;
64157;SDS011;50449;51.528;5.076;2023-06-26T05:40:24;128.18;;;122.22;;
64157;SDS011;50449;51.528;5.076;2023-06-26T05:42:50;124.85;;;119.28;;
64157;SDS011;50449;51.528;5.076;2023-06-26T05:45:15;128.30;;;122.60;;
64157;SDS011;50449;51.528;5.076;2023-06-26T05:47:41;129.35;;;123.85;;
64157;SDS011;50449;51.528;5.076;2023-06-26T05:50:07;127.35;;;121.78;;
64157;SDS011;50449;51.528;5.076;2023-06-26T05:52:34;129.90;;;124.22;;
64157;SDS011;50449;51.528;5.076;2023-06-26T05:55:00;130.35;;;124.47;;
64157;SDS011;50449;51.528;5.076;2023-06-26T05:57:27;126.07;;;120.28;;
64157;SDS011;50449;51.528;5.076;2023-06-26T05:59:53;132.75;;;126.88;;
64157;SDS011;50449;51.528;5.076;2023-06-26T06:02:19;133.60;;;127.55;;
64157;SDS011;50449;51.528;5.076;2023-06-26T06:04:45;126.95;;;121.13;;
64157;SDS011;50449;51.528;5.076;2023-06-26T06:07:11;128.68;;;123.13;;
64157;SDS011;50449;51.528;5.076;2023-06-26T06:09:37;125.43;;;120.03;;
64157;SDS011;50449;51.528;5.076;2023-06-26T06:12:03;129.15;;;123.35;;
64157;SDS011;50449;51.528;5.076;2023-06-26T06:14:30;133.45;;;126.57;;
64157;SDS011;50449;51.528;5.076;2023-06-26T06:16:56;127.38;;;121.68;;
64157;SDS011;50449;51.528;5.076;2023-06-26T06:19:22;126.65;;;121.05;;
64157;SDS011;50449;51.528;5.076;2023-06-26T06:21:47;128.38;;;122.55;;
64157;SDS011;50449;51.528;5.076;2023-06-26T06:24:13;125.55;;;119.65;;
64157;SDS011;50449;51.528;5.076;2023-06-26T06:26:39;125.88;;;120.53;;
64157;SDS011;50449;51.528;5.076;2023-06-26T06:29:04;131.18;;;125.57;;
64157;SDS011;50449;51.528;5.076;2023-06-26T06:31:29;128.88;;;123.28;;
64157;SDS011;50449;51.528;5.076;2023-06-26T06:33:55;127.47;;;121.32;;
64157;SDS011;50449;51.528;5.076;2023-06-26T06:36:20;126.68;;;121.38;;
64157;SDS011;50449;51.528;5.076;2023-06-26T06:38:46;127.10;;;121.78;;
64157;SDS011;50449;51.528;5.076;2023-06-26T06:41:11;125.35;;;119.85;;
64157;SDS011;50449;51.528;5.076;2023-06-26T06:43:37;125.00;;;119.60;;
64157;SDS011;50449;51.528;5.076;2023-06-26T06:46:03;125.90;;;120.55;;
64157;SDS011;50449;51.528;5.076;2023-06-26T06:48:28;128.63;;;123.07;;
64157;SDS011;50449;51.528;5.076;2023-06-26T06:50:54;124.65;;;119.30;;
64157;SDS011;50449;51.528;5.076;2023-06-26T06:53:19;129.77;;;123.93;;
64157;SDS011;50449;51.528;5.076;2023-06-26T06:55:48;126.72;;;121.15;;
64157;SDS011;50449;51.528;5.076;2023-06-26T06:58:14;129.00;;;123.43;;
64157;SDS011;50449;51.528;5.076;2023-06-26T07:00:41;126.22;;;120.93;;
64157;SDS011;50449;51.528;5.076;2023-06-26T07:03:07;130.23;;;124.72;;
64157;SDS011;50449;51.528;5.076;2023-06-26T07:05:32;128.27;;;122.70;;
64157;SDS011;50449;51.528;5.076;2023-06-26T07:07:57;127.30;;;121.90;;
64157;SDS011;50449;51.528;5.076;2023-06-26T07:10:23;128.02;;;122.07;;
64157;SDS011;50449;51.528;5.076;2023-06-26T07:12:48;127.35;;;122.00;;
64157;SDS011;50449;51.528;5.076;2023-06-26T07:15:14;134.30;;;128.35;;
64157;SDS011;50449;51.528;5.076;2023-06-26T07:17:39;128.00;;;122.55;;
64157;SDS011;50449;51.528;5.076;2023-06-26T07:20:05;129.90;;;124.18;;
64157;SDS011;50449;51.528;5.076;2023-06-26T07:22:35;130.40;;;124.55;;
64157;SDS011;50449;51.528;5.076;2023-06-26T07:25:01;129.85;;;124.05;;
64157;SDS011;50449;51.528;5.076;2023-06-26T07:27:28;127.53;;;121.90;;
64157;SDS011;50449;51.528;5.076;2023-06-26T07:29:54;125.32;;;120.05;;
64157;SDS011;50449;51.528;5.076;2023-06-26T07:32:20;124.50;;;119.25;;
64157;SDS011;50449;51.528;5.076;2023-06-26T07:34:45;131.95;;;125.05;;
64157;SDS011;50449;51.528;5.076;2023-06-26T07:37:10;131.95;;;126.35;;
64157;SDS011;50449;51.528;5.076;2023-06-26T07:39:36;126.07;;;120.78;;
64157;SDS011;50449;51.528;5.076;2023-06-26T07:42:01;128.90;;;123.47;;
64157;SDS011;50449;51.528;5.076;2023-06-26T07:44:27;127.35;;;121.97;;
64157;SDS011;50449;51.528;5.076;2023-06-26T07:46:52;128.82;;;123.25;;
64157;SDS011;50449;51.528;5.076;2023-06-26T07:49:17;126.90;;;121.30;;
64157;SDS011;50449;51.528;5.076;2023-06-26T07:51:43;129.18;;;123.57;;
64157;SDS011;50449;51.528;5.076;2023-06-26T07:54:08;128.25;;;122.60;;
64157;SDS011;50449;51.528;5.076;2023-06-26T07:56:35;126.57;;;121.28;;
64157;SDS011;50449;51.528;5.076;2023-06-26T07:59:36;127.03;;;121.55;;
64157;SDS011;50449;51.528;5.076;2023-06-26T08:02:01;125.53;;;120.13;;
64157;SDS011;50449;51.528;5.076;2023-06-26T08:04:27;129.73;;;124.13;;
64157;SDS011;50449;51.528;5.076;2023-06-26T08:06:56;127.78;;;121.97;;
64157;SDS011;50449;51.528;5.076;2023-06-26T08:09:23;127.50;;;121.53;;
64157;SDS011;50449;51.528;5.076;2023-06-26T08:11:50;130.43;;;124.83;;
64157;SDS011;50449;51.528;5.076;2023-06-26T08:14:16;124.95;;;119.70;;
64157;SDS011;50449;51.528;5.076;2023-06-26T08:16:42;131.80;;;126.28;;
64157;SDS011;50449;51.528;5.076;2023-06-26T08:19:12;133.32;;;126.93;;
64157;SDS011;50449;51.528;5.076;2023-06-26T08:21:39;125.93;;;120.57;;
64157;SDS011;50449;51.528;5.076;2023-06-26T08:24:05;132.25;;;126.40;;
64157;SDS011;50449;51.528;5.076;2023-06-26T08:26:31;130.23;;;124.70;;
64157;SDS011;50449;51.528;5.076;2023-06-26T08:28:56;126.25;;;120.75;;
64157;SDS011;50449;51.528;5.076;2023-06-26T08:31:21;130.43;;;124.65;;
64157;SDS011;50449;51.528;5.076;2023-06-26T08:33:47;128.63;;;122.82;;
64157;SDS011;50449;51.528;5.076;2023-06-26T08:36:12;133.88;;;128.27;;
64157;SDS011;50449;51.528;5.076;2023-06-26T08:38:38;134.23;;;128.38;;
64157;SDS011;50449;51.528;5.076;2023-06-26T08:41:07;129.90;;;124.40;;
64157;SDS011;50449;51.528;5.076;2023-06-26T08:43:33;130.98;;;125.45;;
64157;SDS011;50449;51.528;5.076;2023-06-26T08:45:59;131.43;;;125.85;;
64157;SDS011;50449;51.528;5.076;2023-06-26T08:48:25;128.90;;;123.50;;
64157;SDS011;50449;51.528;5.076;2023-06-26T08:50:54;133.55;;;127.82;;
64157;SDS011;50449;51.528;5.076;2023-06-26T08:53:23;133.85;;;127.63;;
64157;SDS011;50449;51.528;5.076;2023-06-26T08:56:12;133.20;;;127.60;;
64157;SDS011;50449;51.528;5.076;2023-06-26T08:58:42;133.13;;;126.47;;
64157;SDS011;50449;51.528;5.076;2023-06-26T09:01:08;134.23;;;128.25;;
64157;SDS011;50449;51.528;5.076;2023-06-26T09:03:35;135.63;;;129.82;;
64157;SDS011;50449;51.528;5.076;2023-06-26T09:06:00;131.35;;;125.75;;
64157;SDS011;50449;51.528;5.076;2023-06-26T09:08:25;128.25;;;122.15;;
64157;SDS011;50449;51.528;5.076;2023-06-26T09:10:51;131.95;;;126.07;;
64157;SDS011;50449;51.528;5.076;2023-06-26T09:13:18;129.35;;;123.75;;
64157;SDS011;50449;51.528;5.076;2023-06-26T09:15:44;131.05;;;125.45;;
64157;SDS011;50449;51.528;5.076;2023-06-26T09:18:10;132.15;;;126.55;;
64157;SDS011;50449;51.528;5.076;2023-06-26T09:20:36;132.40;;;126.70;;
64157;SDS011;50449;51.528;5.076;2023-06-26T09:23:01;135.07;;;129.35;;
64157;SDS011;50449;51.528;5.076;2023-06-26T09:25:28;138.43;;;132.43;;
64157;SDS011;50449;51.528;5.076;2023-06-26T09:27:54;130.98;;;125.47;;
64157;SDS011;50449;51.528;5.076;2023-06-26T09:30:20;136.27;;;130.38;;
64157;SDS011;50449;51.528;5.076;2023-06-26T09:32:46;136.35;;;130.55;;
64157;SDS011;50449;51.528;5.076;2023-06-26T09:35:12;134.68;;;129.05;;
64157;SDS011;50449;51.528;5.076;2023-06-26T09:37:37;135.55;;;129.85;;
64157;SDS011;50449;51.528;5.076;2023-06-26T09:40:03;137.02;;;131.23;;
64157;SDS011;50449;51.528;5.076;2023-06-26T09:42:33;135.70;;;130.07;;
64157;SDS011;50449;51.528;5.076;2023-06-26T09:44:58;142.65;;;136.65;;
64157;SDS011;50449;51.528;5.076;2023-06-26T09:47:24;143.73;;;137.73;;
64157;SDS011;50449;51.528;5.076;2023-06-26T09:49:50;135.02;;;129.40;;
64157;SDS011;50449;51.528;5.076;2023-06-26T09:52:17;134.57;;;128.70;;
64157;SDS011;50449;51.528;5.076;2023-06-26T09:54:45;135.65;;;130.00;;
64157;SDS011;50449;51.528;5.076;2023-06-26T09:57:20;138.23;;;132.35;;
64157;SDS011;50449;51.528;5.076;2023-06-26T09:59:45;136.88;;;131.07;;
64157;SDS011;50449;51.528;5.076;2023-06-26T10:02:11;143.25;;;136.93;;
64157;SDS011;50449;51.528;5.076;2023-06-26T10:04:37;138.38;;;132.55;;
64157;SDS011;50449;51.528;5.076;2023-06-26T10:07:06;141.45;;;135.55;;
64157;SDS011;50449;51.528;5.076;2023-06-26T10:09:36;138.27;;;132.30;;
64157;SDS011;50449;51.528;5.076;2023-06-26T10:12:19;141.43;;;135.13;;
64157;SDS011;50449;51.528;5.076;2023-06-26T10:14:52;140.80;;;134.98;;
64157;SDS011;50449;51.528;5.076;2023-06-26T10:17:20;143.50;;;137.50;;
64157;SDS011;50449;51.528;5.076;2023-06-26T10:19:47;145.52;;;139.43;;
64157;SDS011;50449;51.528;5.076;2023-06-26T10:22:16;143.57;;;137.25;;
64157;SDS011;50449;51.528;5.076;2023-06-26T10:24:43;140.57;;;134.60;;
64157;SDS011;50449;51.528;5.076;2023-06-26T10:27:22;144.20;;;138.18;;
64157;SDS011;50449;51.528;5.076;2023-06-26T10:29:58;145.55;;;139.55;;
64157;SDS011;50449;51.528;5.076;2023-06-26T10:32:30;145.40;;;139.40;;
64157;SDS011;50449;51.528;5.076;2023-06-26T10:34:56;150.52;;;144.35;;
64157;SDS011;50449;51.528;5.076;2023-06-26T10:38:08;148.18;;;141.98;;
64157;SDS011;50449;51.528;5.076;2023-06-26T10:40:27;145.07;;;139.00;;
64157;SDS011;50449;51.528;5.076;2023-06-26T10:43:06;147.40;;;141.30;;
64157;SDS011;50449;51.528;5.076;2023-06-26T10:45:36;149.13;;;142.98;;
64157;SDS011;50449;51.528;5.076;2023-06-26T10:48:02;149.27;;;142.93;;
64157;SDS011;50449;51.528;5.076;2023-06-26T10:50:30;148.52;;;142.32;;
64157;SDS011;50449;51.528;5.076;2023-06-26T10:56:05;148.75;;;142.60;;
64157;SDS011;50449;51.528;5.076;2023-06-26T11:01:19;154.98;;;148.68;;
64157;SDS011;50449;51.528;5.076;2023-06-26T11:04:05;153.82;;;147.52;;
64157;SDS011;50449;51.528;5.076;2023-06-26T11:06:32;149.75;;;143.45;;
64157;SDS011;50449;51.528;5.076;2023-06-26T11:14:17;148.10;;;141.95;;
64157;SDS011;50449;51.528;5.076;2023-06-26T11:16:44;148.20;;;142.10;;
64157;SDS011;50449;51.528;5.076;2023-06-26T11:19:09;150.70;;;144.50;;
64157;SDS011;50449;51.528;5.076;2023-06-26T11:21:38;151.98;;;145.68;;
64157;SDS011;50449;51.528;5.076;2023-06-26T11:24:07;152.80;;;146.52;;
64157;SDS011;50449;51.528;5.076;2023-06-26T11:26:43;151.85;;;145.57;;
64157;SDS011;50449;51.528;5.076;2023-06-26T11:29:10;152.63;;;146.32;;
64157;SDS011;50449;51.528;5.076;2023-06-26T11:31:37;150.82;;;144.52;;
64157;SDS011;50449;51.528;5.076;2023-06-26T11:34:05;152.80;;;146.45;;
64157;SDS011;50449;51.528;5.076;2023-06-26T11:36:38;157.77;;;150.77;;
64157;SDS011;50449;51.528;5.076;2023-06-26T11:39:05;154.98;;;148.65;;
64157;SDS011;50449;51.528;5.076;2023-06-26T11:41:32;162.00;;;155.40;;
64157;SDS011;50449;51.528;5.076;2023-06-26T11:44:02;155.68;;;149.32;;
64157;SDS011;50449;51.528;5.076;2023-06-26T11:46:28;159.98;;;153.48;;
64157;SDS011;50449;51.528;5.076;2023-06-26T11:48:55;156.63;;;150.23;;
64157;SDS011;50449;51.528;5.076;2023-06-26T11:51:20;157.25;;;150.80;;
64157;SDS011;50449;51.528;5.076;2023-06-26T11:53:46;164.18;;;157.38;;
64157;SDS011;50449;51.528;5.076;2023-06-26T11:56:13;164.17;;;157.17;;
64157;SDS011;50449;51.528;5.076;2023-06-26T12:01:31;160.95;;;154.35;;
64157;SDS011;50449;51.528;5.076;2023-06-26T12:06:29;152.70;;;146.15;;
64157;SDS011;50449;51.528;5.076;2023-06-26T12:08:58;158.13;;;151.65;;
64157;SDS011;50449;51.528;5.076;2023-06-26T12:11:25;158.82;;;152.32;;
64157;SDS011;50449;51.528;5.076;2023-06-26T12:13:53;155.63;;;149.27;;
64157;SDS011;50449;51.528;5.076;2023-06-26T12:16:19;153.85;;;147.32;;
64157;SDS011;50449;51.528;5.076;2023-06-26T12:18:45;157.13;;;150.70;;
64157;SDS011;50449;51.528;5.076;2023-06-26T12:21:53;162.98;;;156.38;;
64157;SDS011;50449;51.528;5.076;2023-06-26T12:24:02;161.80;;;155.23;;
64157;SDS011;50449;51.528;5.076;2023-06-26T12:26:28;163.38;;;156.75;;
64157;SDS011;50449;51.528;5.076;2023-06-26T12:29:03;158.15;;;151.57;;
64157;SDS011;50449;51.528;5.076;2023-06-26T12:31:29;161.55;;;154.77;;
64157;SDS011;50449;51.528;5.076;2023-06-26T12:33:55;161.85;;;155.27;;
64157;SDS011;50449;51.528;5.076;2023-06-26T12:36:21;159.77;;;153.25;;
64157;SDS011;50449;51.528;5.076;2023-06-26T12:38:48;160.50;;;153.70;;
64157;SDS011;50449;51.528;5.076;2023-06-26T12:41:14;159.68;;;153.15;;
64157;SDS011;50449;51.528;5.076;2023-06-26T12:43:40;168.07;;;161.02;;
64157;SDS011;50449;51.528;5.076;2023-06-26T12:46:06;167.75;;;160.95;;
64157;SDS011;50449;51.528;5.076;2023-06-26T12:48:44;162.40;;;155.80;;
64157;SDS011;50449;51.528;5.076;2023-06-26T12:51:16;166.63;;;159.93;;
64157;SDS011;50449;51.528;5.076;2023-06-26T12:53:42;165.38;;;158.68;;
64157;SDS011;50449;51.528;5.076;2023-06-26T12:56:08;163.63;;;156.68;;
64157;SDS011;50449;51.528;5.076;2023-06-26T12:58:34;161.25;;;154.57;;
64157;SDS011;50449;51.528;5.076;2023-06-26T13:01:04;163.07;;;156.25;;
64157;SDS011;50449;51.528;5.076;2023-06-26T13:03:40;163.13;;;156.52;;
64157;SDS011;50449;51.528;5.076;2023-06-26T13:06:08;165.77;;;159.02;;
64157;SDS011;50449;51.528;5.076;2023-06-26T13:08:33;167.18;;;160.38;;
64157;SDS011;50449;51.528;5.076;2023-06-26T13:10:59;172.50;;;165.50;;
64157;SDS011;50449;51.528;5.076;2023-06-26T13:13:25;174.80;;;167.85;;
64157;SDS011;50449;51.528;5.076;2023-06-26T13:15:51;168.13;;;161.27;;
64157;SDS011;50449;51.528;5.076;2023-06-26T13:18:16;168.90;;;161.73;;
64157;SDS011;50449;51.528;5.076;2023-06-26T13:20:42;164.63;;;157.93;;
64157;SDS011;50449;51.528;5.076;2023-06-26T13:23:07;167.05;;;160.05;;
64157;SDS011;50449;51.528;5.076;2023-06-26T13:25:33;168.65;;;161.85;;
64157;SDS011;50449;51.528;5.076;2023-06-26T13:27:58;167.32;;;160.45;;
64157;SDS011;50449;51.528;5.076;2023-06-26T13:30:24;165.35;;;158.68;;
64157;SDS011;50449;51.528;5.076;2023-06-26T13:32:49;166.63;;;159.93;;
64157;SDS011;50449;51.528;5.076;2023-06-26T13:35:15;169.32;;;161.82;;
64157;SDS011;50449;51.528;5.076;2023-06-26T13:37:41;170.57;;;163.15;;
64157;SDS011;50449;51.528;5.076;2023-06-26T13:40:07;172.75;;;165.75;;
64157;SDS011;50449;51.528;5.076;2023-06-26T13:42:34;170.50;;;163.60;;
64157;SDS011;50449;51.528;5.076;2023-06-26T13:45:01;171.38;;;164.27;;
64157;SDS011;50449;51.528;5.076;2023-06-26T13:47:27;165.43;;;158.65;;
64157;SDS011;50449;51.528;5.076;2023-06-26T13:49:53;166.93;;;160.15;;
64157;SDS011;50449;51.528;5.076;2023-06-26T13:52:18;172.55;;;165.65;;
64157;SDS011;50449;51.528;5.076;2023-06-26T13:54:44;164.40;;;157.73;;
64157;SDS011;50449;51.528;5.076;2023-06-26T13:57:09;167.18;;;160.38;;
64157;SDS011;50449;51.528;5.076;2023-06-26T13:59:36;166.77;;;160.02;;
64157;SDS011;50449;51.528;5.076;2023-06-26T14:02:03;162.90;;;156.25;;
64157;SDS011;50449;51.528;5.076;2023-06-26T14:04:30;166.80;;;159.88;;
64157;SDS011;50449;51.528;5.076;2023-06-26T14:06:55;163.02;;;156.43;;
64157;SDS011;50449;51.528;5.076;2023-06-26T14:09:21;163.63;;;156.82;;
64157;SDS011;50449;51.528;5.076;2023-06-26T14:11:46;170.07;;;163.13;;
64157;SDS011;50449;51.528;5.076;2023-06-26T14:14:12;165.77;;;159.00;;
64157;SDS011;50449;51.528;5.076;2023-06-26T14:16:38;169.07;;;162.10;;
64157;SDS011;50449;51.528;5.076;2023-06-26T14:19:05;162.13;;;155.47;;
64157;SDS011;50449;51.528;5.076;2023-06-26T14:21:30;173.23;;;166.27;;